createdAt,value
2023-03-28T00:01:08.285Z,62.10
2023-03-28T00:03:39.428Z,59.90
2023-03-28T00:06:11.219Z,62.20
2023-03-28T00:08:40.260Z,65.40
2023-03-28T00:11:18.961Z,66.30
2023-03-28T00:13:53.707Z,68.00
2023-03-28T00:16:21.731Z,69.70
2023-03-28T00:18:51.065Z,65.90
2023-03-28T00:21:29.281Z,63.60
2023-03-28T00:24:03.076Z,64.10
2023-03-28T00:26:33.216Z,75.10
2023-03-28T00:29:01.947Z,66.70
2023-03-28T00:31:30.811Z,64.50
2023-03-28T00:33:58.452Z,65.40
2023-03-28T00:36:29.590Z,65.60
2023-03-28T00:38:58.097Z,66.10
2023-03-28T00:44:00.301Z,64.70
2023-03-28T00:46:39.061Z,67.00
2023-03-28T00:49:23.547Z,69.70
2023-03-28T00:51:57.171Z,66.20
2023-03-28T00:54:28.205Z,75.90
2023-03-28T00:57:00.150Z,82.70
2023-03-28T00:59:31.187Z,74.20
2023-03-28T01:01:59.241Z,69.60
2023-03-28T01:04:36.591Z,72.70
2023-03-28T01:07:05.465Z,73.00
2023-03-28T01:09:36.411Z,74.30
2023-03-28T01:12:04.566Z,74.50
2023-03-28T01:14:33.185Z,71.80
2023-03-28T01:17:03.607Z,63.90
2023-03-28T01:19:44.288Z,64.50
2023-03-28T01:22:56.902Z,67.00
2023-03-28T01:25:44.242Z,65.70
2023-03-28T01:28:42.217Z,65.80
2023-03-28T01:31:34.735Z,63.20
2023-03-28T01:34:19.664Z,63.10
2023-03-28T01:37:10.512Z,65.00
2023-03-28T01:40:11.066Z,66.20
2023-03-28T01:43:07.831Z,67.00
2023-03-28T01:45:59.895Z,71.40
2023-03-28T01:49:00.044Z,67.90
2023-03-28T01:52:19.037Z,77.50
2023-03-28T01:55:09.797Z,76.50
2023-03-28T01:58:05.231Z,78.90
2023-03-28T02:00:46.006Z,78.20
2023-03-28T02:03:25.345Z,77.00
2023-03-28T02:06:09.066Z,84.20
2023-03-28T02:08:41.206Z,83.20
2023-03-28T02:11:27.169Z,89.80
2023-03-28T02:14:20.991Z,90.10
2023-03-28T02:17:15.618Z,88.20
2023-03-28T02:20:09.091Z,80.60
2023-03-28T02:23:11.900Z,77.40
2023-03-28T02:25:49.198Z,77.20
2023-03-28T02:28:44.279Z,80.10
2023-03-28T02:31:36.225Z,85.90
2023-03-28T02:34:03.820Z,87.90
2023-03-28T02:36:57.512Z,90.60
2023-03-28T02:39:59.543Z,87.00
2023-03-28T02:42:30.006Z,88.40
2023-03-28T02:45:00.699Z,89.10
2023-03-28T02:48:09.150Z,90.80
2023-03-28T02:50:41.170Z,91.20
2023-03-28T02:53:27.318Z,90.70
2023-03-28T02:56:00.371Z,90.70
2023-03-28T02:58:54.972Z,89.00
2023-03-28T03:01:29.228Z,80.70
2023-03-28T03:03:58.682Z,79.30
2023-03-28T03:06:26.240Z,83.90
2023-03-28T03:08:53.768Z,83.30
2023-03-28T03:11:25.111Z,90.90
2023-03-28T03:13:52.532Z,92.30
2023-03-28T03:16:20.707Z,90.30
2023-03-28T03:18:48.487Z,92.40
2023-03-28T03:21:16.852Z,93.80
2023-03-28T03:23:44.330Z,93.00
2023-03-28T03:26:11.998Z,92.30
2023-03-28T03:28:46.213Z,90.90
2023-03-28T03:31:13.825Z,89.00
2023-03-28T03:34:01.870Z,93.50
2023-03-28T03:36:33.560Z,93.90
2023-03-28T03:39:01.577Z,92.50
2023-03-28T03:41:29.702Z,93.10
2023-03-28T03:43:57.239Z,90.40
2023-03-28T03:46:24.769Z,92.50
2023-03-28T03:48:53.563Z,91.90
2023-03-28T03:51:21.131Z,89.10
2023-03-28T03:53:51.947Z,84.40
2023-03-28T03:56:22.892Z,92.00
2023-03-28T03:58:56.499Z,94.10
2023-03-28T04:01:30.302Z,95.10
2023-03-28T04:04:09.794Z,95.80
2023-03-28T04:06:59.126Z,96.40
2023-03-28T04:09:27.373Z,95.20
2023-03-28T04:11:59.712Z,91.60
2023-03-28T04:14:27.918Z,92.20
2023-03-28T04:17:16.270Z,83.50
2023-03-28T04:19:45.830Z,93.70
2023-03-28T04:22:13.887Z,90.50
2023-03-28T04:24:49.968Z,92.30
2023-03-28T04:27:31.289Z,91.80
2023-03-28T04:30:00.646Z,94.50
2023-03-28T04:32:58.800Z,96.00
2023-03-28T04:35:29.820Z,93.90
2023-03-28T04:38:00.131Z,92.40
2023-03-28T04:40:28.301Z,91.40
2023-03-28T04:43:21.312Z,90.00
2023-03-28T04:45:53.636Z,92.90
2023-03-28T04:48:23.813Z,95.50
2023-03-28T04:50:51.976Z,94.90
2023-03-28T04:53:19.484Z,86.90
2023-03-28T04:56:13.802Z,81.00
2023-03-28T04:58:41.790Z,76.00
2023-03-28T05:01:10.569Z,81.90
2023-03-28T05:04:17.799Z,91.50
2023-03-28T05:06:46.598Z,80.70
2023-03-28T05:09:16.504Z,77.30
2023-03-28T05:11:44.730Z,75.40
2023-03-28T05:14:12.574Z,72.50
2023-03-28T05:16:47.710Z,71.20
2023-03-28T05:19:33.569Z,69.60
2023-03-28T05:22:11.427Z,83.70
2023-03-28T05:24:42.314Z,88.50
2023-03-28T05:27:21.701Z,76.20
2023-03-28T05:29:49.117Z,73.00
2023-03-28T05:32:18.003Z,72.00
2023-03-28T05:34:46.797Z,87.10
2023-03-28T05:37:14.300Z,89.70
2023-03-28T05:39:53.498Z,84.50
2023-03-28T05:42:21.261Z,76.00
2023-03-28T05:44:49.172Z,74.40
2023-03-28T05:47:34.545Z,73.30
2023-03-28T05:50:03.036Z,85.80
2023-03-28T05:52:30.966Z,82.50
2023-03-28T05:54:58.368Z,76.00
2023-03-28T05:57:26.266Z,78.30
2023-03-28T05:59:54.559Z,81.20
2023-03-28T06:02:24.411Z,83.30
2023-03-28T06:04:58.054Z,75.20
2023-03-28T06:07:39.204Z,71.40
2023-03-28T06:10:09.892Z,69.60
2023-03-28T06:12:38.341Z,69.30
2023-03-28T06:15:08.096Z,69.40
2023-03-28T06:17:39.816Z,70.30
2023-03-28T06:20:09.913Z,81.80
2023-03-28T06:22:38.434Z,85.30
2023-03-28T06:25:09.517Z,75.80
2023-03-28T06:27:37.162Z,73.10
2023-03-28T06:30:05.378Z,70.30
2023-03-28T06:32:39.921Z,67.20
2023-03-28T06:35:08.235Z,65.10
2023-03-28T06:37:35.731Z,65.40
2023-03-28T06:40:08.686Z,60.60
2023-03-28T06:42:36.802Z,61.80
2023-03-28T06:45:22.237Z,60.80
2023-03-28T06:47:58.109Z,58.00
2023-03-28T06:50:40.228Z,57.70
2023-03-28T06:53:11.438Z,57.70
2023-03-28T06:55:38.866Z,53.30
2023-03-28T06:58:06.819Z,56.20
2023-03-28T07:00:45.961Z,54.80
2023-03-28T07:03:32.333Z,56.10
2023-03-28T07:06:04.542Z,55.80
2023-03-28T07:08:32.911Z,58.30
2023-03-28T07:11:00.949Z,58.50
2023-03-28T07:13:29.491Z,59.00
2023-03-28T07:16:06.079Z,58.00
2023-03-28T07:18:34.738Z,59.00
2023-03-28T07:21:14.001Z,62.30
2023-03-28T07:23:42.543Z,64.60
2023-03-28T07:26:14.004Z,61.60
2023-03-28T07:28:41.642Z,58.80
2023-03-28T07:31:09.645Z,57.30
2023-03-28T07:33:38.581Z,55.70
2023-03-28T07:36:13.989Z,54.50
2023-03-28T07:38:44.071Z,57.30
2023-03-28T07:41:12.929Z,57.60
2023-03-28T07:43:40.556Z,57.70
2023-03-28T07:46:11.449Z,62.20
2023-03-28T07:48:40.798Z,67.30
2023-03-28T07:51:10.249Z,72.00
2023-03-28T07:53:38.060Z,68.10
2023-03-28T07:56:11.792Z,59.80
2023-03-28T07:59:05.586Z,57.90
2023-03-28T08:01:33.456Z,60.60
2023-03-28T08:04:03.580Z,70.10
2023-03-28T08:06:58.388Z,70.60
2023-03-28T08:09:25.920Z,68.00
2023-03-28T08:12:13.648Z,64.40
2023-03-28T08:14:43.454Z,58.90
2023-03-28T08:17:10.986Z,68.60
2023-03-28T08:19:38.495Z,67.40
2023-03-28T08:22:12.475Z,66.10
2023-03-28T08:25:03.112Z,65.50
2023-03-28T08:27:30.722Z,69.50
2023-03-28T08:30:07.762Z,61.90
2023-03-28T08:32:38.645Z,63.40
2023-03-28T08:35:07.080Z,66.40
2023-03-28T08:37:34.812Z,70.80
2023-03-28T08:40:07.080Z,68.30
2023-03-28T08:43:01.699Z,65.50
2023-03-28T08:45:51.852Z,66.50
2023-03-28T08:48:32.428Z,66.90
2023-03-28T08:51:00.101Z,60.90
2023-03-28T08:53:35.421Z,63.40
2023-03-28T08:56:07.183Z,59.00
2023-03-28T08:58:50.242Z,59.00
2023-03-28T09:01:22.224Z,57.40
2023-03-28T09:03:50.504Z,56.10
2023-03-28T09:06:40.865Z,58.60
2023-03-28T09:09:49.104Z,57.80
2023-03-28T09:13:03.838Z,55.90
2023-03-28T09:16:02.450Z,61.10
2023-03-28T09:18:37.289Z,59.30
2023-03-28T09:21:23.517Z,55.00
2023-03-28T09:24:16.512Z,53.40
2023-03-28T09:27:28.238Z,56.60
2023-03-28T09:30:18.072Z,60.20
2023-03-28T09:32:46.762Z,61.60
2023-03-28T09:35:20.444Z,56.70
2023-03-28T09:37:52.068Z,56.90
2023-03-28T09:40:20.863Z,59.40
2023-03-28T09:43:15.488Z,60.70
2023-03-28T09:46:00.474Z,54.70
2023-03-28T09:48:40.703Z,56.50
2023-03-28T09:51:17.232Z,63.00
2023-03-28T09:53:46.650Z,58.70
2023-03-28T09:56:49.858Z,56.60
2023-03-28T09:59:40.634Z,48.30
2023-03-28T10:02:30.037Z,57.10
2023-03-28T10:05:02.776Z,61.60
2023-03-28T10:07:33.461Z,59.40
2023-03-28T10:10:25.201Z,61.00
2023-03-28T10:13:06.345Z,60.60
2023-03-28T10:15:46.861Z,58.90
2023-03-28T10:18:19.696Z,59.90
2023-03-28T10:20:53.447Z,57.50
2023-03-28T10:23:23.775Z,64.40
2023-03-28T10:25:55.463Z,62.40
2023-03-28T10:28:33.837Z,60.10
2023-03-28T10:31:02.680Z,55.50
2023-03-28T10:33:42.989Z,56.70
2023-03-28T10:36:40.114Z,60.20
2023-03-28T10:39:26.415Z,63.10
2023-03-28T10:42:12.851Z,59.30
2023-03-28T10:45:02.711Z,59.60
2023-03-28T10:47:34.582Z,61.60
2023-03-28T10:50:19.994Z,64.40
2023-03-28T10:53:12.424Z,61.80
2023-03-28T10:56:13.898Z,61.90
2023-03-28T10:59:11.404Z,62.40
2023-03-28T11:01:50.332Z,62.50
2023-03-28T11:04:42.334Z,57.20
2023-03-28T11:07:24.884Z,47.90
2023-03-28T11:10:35.420Z,48.40
2023-03-28T11:13:23.123Z,48.80
2023-03-28T11:16:23.303Z,44.00
2023-03-28T11:19:36.473Z,43.70
2023-03-28T11:22:42.193Z,45.00
2023-03-28T11:25:23.990Z,45.50
2023-03-28T11:28:58.878Z,44.40
2023-03-28T11:31:51.563Z,46.70
2023-03-28T11:34:32.797Z,44.50
2023-03-28T11:37:07.610Z,44.90
2023-03-28T11:39:53.660Z,44.20
2023-03-28T11:42:42.381Z,45.30
2023-03-28T11:45:47.677Z,41.70
2023-03-28T11:48:37.654Z,44.00
2023-03-28T11:51:22.923Z,46.20
2023-03-28T11:54:05.671Z,42.80
2023-03-28T11:56:59.839Z,46.90
2023-03-28T11:59:55.480Z,46.50
2023-03-28T12:02:38.011Z,46.40
2023-03-28T12:05:10.344Z,46.30
2023-03-28T12:07:47.741Z,43.30
2023-03-28T12:10:28.040Z,45.60
2023-03-28T12:13:05.772Z,48.10
2023-03-28T12:16:14.772Z,47.00
2023-03-28T12:19:04.350Z,46.40
2023-03-28T12:21:49.668Z,47.90
2023-03-28T12:24:46.742Z,46.10
2023-03-28T12:28:00.410Z,48.50
2023-03-28T12:30:48.925Z,48.30
2023-03-28T12:33:43.340Z,45.30
2023-03-28T12:36:34.115Z,45.90
2023-03-28T12:39:34.560Z,42.70
2023-03-28T12:42:09.775Z,40.50
2023-03-28T12:44:54.622Z,42.20
2023-03-28T12:47:52.380Z,45.10
2023-03-28T12:50:33.692Z,43.30
2023-03-28T12:53:01.718Z,46.10
2023-03-28T12:55:42.147Z,44.60
2023-03-28T12:58:25.130Z,45.60
2023-03-28T13:01:21.899Z,44.30
2023-03-28T13:04:32.412Z,48.60
2023-03-28T13:07:26.944Z,45.00
2023-03-28T13:10:21.417Z,46.00
2023-03-28T13:13:16.736Z,50.80
2023-03-28T13:16:15.275Z,48.80
2023-03-28T13:18:48.287Z,45.40
2023-03-28T13:21:46.423Z,40.70
2023-03-28T13:24:26.166Z,39.50
2023-03-28T13:27:03.428Z,40.40
2023-03-28T13:29:49.295Z,40.40
2023-03-28T13:32:26.513Z,45.30
2023-03-28T13:35:01.757Z,45.80
2023-03-28T13:37:44.697Z,45.50
2023-03-28T13:40:41.206Z,49.00
2023-03-28T13:43:40.033Z,45.50
2023-03-28T13:46:38.962Z,45.90
2023-03-28T13:49:24.840Z,47.10
2023-03-28T13:52:00.628Z,43.50
2023-03-28T13:54:28.960Z,44.90
2023-03-28T13:57:06.613Z,47.60
2023-03-28T13:59:35.847Z,42.80
2023-03-28T14:02:15.812Z,43.10
2023-03-28T14:04:54.503Z,45.60
2023-03-28T14:07:29.258Z,44.10
2023-03-28T14:09:58.288Z,44.60
2023-03-28T14:12:29.479Z,47.50
2023-03-28T14:15:00.170Z,45.40
2023-03-28T14:17:32.545Z,49.10
2023-03-28T14:20:05.555Z,47.20
2023-03-28T14:22:45.756Z,46.90
2023-03-28T14:25:22.182Z,49.10
2023-03-28T14:27:51.356Z,48.20
2023-03-28T14:30:25.376Z,48.70
2023-03-28T14:33:08.470Z,48.80
2023-03-28T14:35:37.460Z,49.60
2023-03-28T14:38:36.167Z,48.30
2023-03-28T14:41:22.461Z,50.80
2023-03-28T14:43:56.042Z,50.20
2023-03-28T14:46:27.555Z,51.50
2023-03-28T14:48:59.028Z,53.00
2023-03-28T14:51:28.135Z,52.80
2023-03-28T14:53:56.296Z,53.00
2023-03-28T14:56:26.407Z,52.00
2023-03-28T14:59:02.342Z,50.90
2023-03-28T15:01:33.401Z,51.10
2023-03-28T15:04:06.778Z,52.70
2023-03-28T15:06:35.234Z,49.50
2023-03-28T15:09:28.656Z,52.70
2023-03-28T15:11:57.432Z,51.60
2023-03-28T15:14:30.847Z,53.10
2023-03-28T15:16:59.046Z,51.50
2023-03-28T15:19:40.144Z,52.30
2023-03-28T15:22:19.782Z,51.40
2023-03-28T15:24:47.706Z,51.20
2023-03-28T15:27:32.119Z,49.40
2023-03-28T15:30:13.653Z,49.60
2023-03-28T15:32:41.302Z,51.60
2023-03-28T15:35:33.084Z,51.90
2023-03-28T15:38:26.994Z,51.50
2023-03-28T15:41:18.252Z,50.90
2023-03-28T15:43:54.715Z,51.90
2023-03-28T15:46:36.379Z,52.50
2023-03-28T15:49:06.284Z,49.70
2023-03-28T15:51:48.286Z,50.00
2023-03-28T15:54:27.931Z,49.60
2023-03-28T15:57:01.670Z,50.60
2023-03-28T15:59:42.443Z,52.30
2023-03-28T16:02:25.198Z,51.70
2023-03-28T16:05:09.513Z,50.60
2023-03-28T16:07:49.960Z,52.00
2023-03-28T16:10:20.706Z,52.50
2023-03-28T16:13:14.556Z,56.10
2023-03-28T16:15:53.332Z,52.50
2023-03-28T16:18:33.316Z,52.70
2023-03-28T16:21:02.935Z,52.10
2023-03-28T16:23:30.422Z,51.50
2023-03-28T16:25:58.111Z,52.70
2023-03-28T16:28:25.616Z,51.50
2023-03-28T16:30:53.237Z,52.30
2023-03-28T16:33:21.111Z,53.50
2023-03-28T16:35:48.559Z,54.20
2023-03-28T16:38:16.310Z,54.30
2023-03-28T16:40:45.402Z,54.80
2023-03-28T16:43:15.425Z,55.50
2023-03-28T16:45:46.886Z,55.10
2023-03-28T16:48:15.070Z,56.90
2023-03-28T16:50:49.435Z,56.70
2023-03-28T16:53:16.892Z,55.40
2023-03-28T16:55:45.522Z,54.70
2023-03-28T16:58:13.087Z,53.60
2023-03-28T17:00:44.545Z,55.70
2023-03-28T17:03:12.272Z,56.10
2023-03-28T17:05:39.968Z,54.80
2023-03-28T17:08:07.634Z,55.70
2023-03-28T17:10:39.449Z,55.50
2023-03-28T17:13:07.685Z,56.90
2023-03-28T17:15:35.656Z,57.10
2023-03-28T17:18:05.708Z,58.20
2023-03-28T17:20:33.505Z,59.70
2023-03-28T17:23:00.980Z,64.20
2023-03-28T17:25:28.403Z,63.60
2023-03-28T17:27:55.991Z,65.60
2023-03-28T17:30:23.432Z,64.30
2023-03-28T17:32:51.540Z,66.70
2023-03-28T17:35:19.146Z,65.30
2023-03-28T17:37:46.646Z,70.40
2023-03-28T17:40:15.547Z,67.90
2023-03-28T17:42:43.028Z,68.90
2023-03-28T17:45:10.799Z,70.50
2023-03-28T17:47:39.452Z,73.00
2023-03-28T17:50:07.586Z,75.10
2023-03-28T17:52:35.325Z,76.90
2023-03-28T17:55:02.970Z,77.10
2023-03-28T17:57:30.414Z,76.00
2023-03-28T17:59:58.307Z,77.20
2023-03-28T18:02:26.033Z,77.30
2023-03-28T18:05:06.596Z,79.10
2023-03-28T18:07:35.506Z,77.80
2023-03-28T18:10:08.781Z,79.70
2023-03-28T18:12:37.030Z,80.10
2023-03-28T18:15:05.454Z,79.60
2023-03-28T18:17:33.007Z,78.30
2023-03-28T18:20:00.890Z,79.70
2023-03-28T18:22:29.211Z,80.20
2023-03-28T18:24:56.752Z,80.30
2023-03-28T18:27:24.218Z,82.50
2023-03-28T18:29:51.711Z,82.10
2023-03-28T18:32:19.106Z,81.20
2023-03-28T18:34:46.691Z,84.60
2023-03-28T18:37:14.312Z,86.80
2023-03-28T18:39:42.244Z,84.40
2023-03-28T18:42:09.830Z,89.20
2023-03-28T18:44:37.450Z,84.70
2023-03-28T18:47:05.292Z,87.50
2023-03-28T18:49:32.894Z,83.00
2023-03-28T18:52:04.343Z,89.90
2023-03-28T18:54:33.187Z,82.10
2023-03-28T18:57:01.583Z,89.50
2023-03-28T18:59:29.980Z,90.10
2023-03-28T19:01:58.507Z,82.10
2023-03-28T19:04:26.541Z,80.70
2023-03-28T19:06:54.063Z,80.40
2023-03-28T19:09:22.005Z,82.60
2023-03-28T19:11:53.175Z,82.60
2023-03-28T19:14:20.711Z,82.50
2023-03-28T19:16:48.283Z,90.30
2023-03-28T19:19:16.663Z,92.60
2023-03-28T19:21:44.590Z,90.30
2023-03-28T19:24:12.335Z,92.00
2023-03-28T19:26:39.763Z,89.30
2023-03-28T19:29:07.445Z,87.50
2023-03-28T19:31:34.816Z,88.60
2023-03-28T19:34:02.450Z,82.40
2023-03-28T19:36:29.903Z,80.00
2023-03-28T19:38:57.391Z,78.20
2023-03-28T19:41:26.458Z,78.30
2023-03-28T19:43:55.344Z,76.90
2023-03-28T19:46:33.107Z,74.90
2023-03-28T19:49:03.716Z,75.90
2023-03-28T19:51:31.508Z,79.60
2023-03-28T19:53:58.973Z,78.90
2023-03-28T19:56:27.217Z,76.90
2023-03-28T19:58:54.677Z,76.80
2023-03-28T20:01:22.216Z,77.00
2023-03-28T20:03:52.995Z,76.50
2023-03-28T20:06:22.600Z,76.30
2023-03-28T20:08:50.749Z,75.50
2023-03-28T20:11:18.324Z,76.20
2023-03-28T20:13:46.429Z,80.00
2023-03-28T20:16:14.721Z,77.60
2023-03-28T20:18:42.722Z,75.10
2023-03-28T20:21:13.186Z,75.10
2023-03-28T20:23:41.091Z,74.30
2023-03-28T20:26:18.116Z,74.00
2023-03-28T20:28:52.129Z,85.40
2023-03-28T20:31:19.704Z,83.60
2023-03-28T20:33:47.212Z,89.80
2023-03-28T20:36:15.062Z,79.00
2023-03-28T20:38:42.629Z,91.20
2023-03-28T20:41:14.677Z,90.60
2023-03-28T20:43:47.752Z,78.70
2023-03-28T20:46:19.857Z,81.00
2023-03-28T20:48:53.251Z,75.50
2023-03-28T20:51:22.871Z,74.90
2023-03-28T20:53:54.767Z,75.60
2023-03-28T20:56:23.502Z,73.40
2023-03-28T20:58:53.093Z,74.30
2023-03-28T21:01:26.254Z,73.00
2023-03-28T21:03:58.881Z,71.50
2023-03-28T21:06:29.493Z,72.00
2023-03-28T21:09:01.756Z,71.00
2023-03-28T21:11:30.489Z,71.50
2023-03-28T21:13:59.150Z,71.80
2023-03-28T21:16:27.683Z,71.90
2023-03-28T21:18:55.504Z,73.60
2023-03-28T21:21:23.829Z,72.80
2023-03-28T21:23:53.121Z,73.50
2023-03-28T21:26:22.793Z,73.90
2023-03-28T21:28:52.483Z,72.80
2023-03-28T21:31:27.290Z,76.30
2023-03-28T21:33:59.804Z,81.20
2023-03-28T21:36:28.034Z,88.60
2023-03-28T21:38:56.525Z,79.00
2023-03-28T21:41:24.570Z,88.50
2023-03-28T21:43:53.850Z,77.80
2023-03-28T21:46:22.264Z,77.10
2023-03-28T21:48:49.988Z,81.40
2023-03-28T21:51:17.775Z,89.20
2023-03-28T21:53:45.790Z,80.40
2023-03-28T21:56:14.858Z,79.00
2023-03-28T21:58:42.803Z,77.70
2023-03-28T22:01:13.883Z,76.80
2023-03-28T22:03:41.459Z,76.20
2023-03-28T22:06:09.454Z,84.30
2023-03-28T22:08:36.994Z,78.40
2023-03-28T22:11:13.671Z,85.50
2023-03-28T22:13:42.293Z,81.10
2023-03-28T22:16:09.874Z,88.60
2023-03-28T22:18:37.371Z,93.80
2023-03-28T22:21:05.340Z,94.70
2023-03-28T22:23:32.799Z,90.40
2023-03-28T22:26:00.362Z,88.50
2023-03-28T22:28:27.740Z,93.30
2023-03-28T22:30:56.686Z,91.90
2023-03-28T22:33:25.355Z,93.20
2023-03-28T22:35:53.387Z,87.80
2023-03-28T22:38:20.920Z,82.00
2023-03-28T22:40:48.354Z,79.60
2023-03-28T22:43:16.436Z,79.90
2023-03-28T22:45:43.936Z,79.80
2023-03-28T22:48:14.558Z,79.50
2023-03-28T22:50:47.344Z,79.50
2023-03-28T22:53:15.506Z,81.70
2023-03-28T22:55:43.986Z,80.50
2023-03-28T22:58:12.595Z,79.80
2023-03-28T23:00:40.359Z,79.30
2023-03-28T23:03:08.259Z,77.90
2023-03-28T23:05:36.282Z,77.40
2023-03-28T23:08:04.817Z,78.20
2023-03-28T23:10:32.952Z,76.30
2023-03-28T23:13:00.596Z,86.30
2023-03-28T23:15:28.287Z,86.50
2023-03-28T23:17:56.537Z,90.00
2023-03-28T23:20:24.727Z,84.90
2023-03-28T23:22:53.603Z,79.90
2023-03-28T23:25:22.157Z,90.80
2023-03-28T23:27:49.784Z,91.20
2023-03-28T23:30:17.587Z,92.80
2023-03-28T23:32:45.457Z,90.10
2023-03-28T23:35:12.971Z,86.00
2023-03-28T23:37:40.773Z,90.70
2023-03-28T23:40:15.066Z,92.00
2023-03-28T23:42:44.718Z,93.00
2023-03-28T23:45:15.101Z,93.00
2023-03-28T23:47:43.757Z,88.90
2023-03-28T23:50:12.143Z,90.10
2023-03-28T23:52:40.081Z,90.70
2023-03-28T23:55:08.911Z,94.30
2023-03-28T23:57:36.766Z,94.20
